Time;durP1;ratioP1;P1;durP2;ratioP2;P2;SDS_P1;SDS_P2;PMS_P1;PMS_P2;Temp;Humidity;BMP_temperature;BMP_pressure;BME280_temperature;BME280_humidity;BME280_pressure;Samples;Min_cycle;Max_cycle;Signal;HPM_P1;HPM_P2
2022/01/24 00:02:08;;;;;;;19.73;13.13;;;7.50;99.90;;;;;;5010891;28;20197;-24
2022/01/24 00:04:37;;;;;;;23.23;15.03;;;7.50;99.90;;;;;;5011348;28;20695;-24
2022/01/24 00:07:05;;;;;;;22.13;14.90;;;7.50;99.90;;;;;;5024646;28;20432;-24
2022/01/24 00:09:38;;;;;;;21.10;14.30;;;7.40;99.90;;;;;;5011398;28;20228;-24
2022/01/24 00:12:17;;;;;;;21.90;14.70;;;7.40;99.90;;;;;;5009104;28;20328;-24
2022/01/24 00:15:00;;;;;;;19.63;13.50;;;7.40;99.90;;;;;;5010705;28;20197;-24
2022/01/24 00:28:25;;;;;;;22.30;15.97;;;7.40;99.90;;;;;;5010638;28;20316;-24
2022/01/24 00:30:55;;;;;;;22.03;15.60;;;7.40;99.90;;;;;;5010689;28;20676;-24
2022/01/24 00:33:23;;;;;;;21.97;15.47;;;7.40;99.90;;;;;;5026077;28;20560;-24
2022/01/24 00:35:53;;;;;;;23.03;15.83;;;7.40;99.90;;;;;;5009474;28;20235;-24
2022/01/24 00:38:24;;;;;;;22.03;15.73;;;7.40;99.90;;;;;;5011056;28;20226;-24
2022/01/24 00:40:56;;;;;;;21.50;15.37;;;7.40;99.90;;;;;;5010838;28;20190;-24
2022/01/24 00:46:30;;;;;;;22.83;16.43;;;7.40;99.90;;;;;;5010136;28;20197;-24
2022/01/24 00:57:14;;;;;;;19.47;13.70;;;7.30;99.90;;;;;;5009964;28;20213;-24
2022/01/24 00:59:43;;;;;;;18.77;13.47;;;7.30;99.90;;;;;;5010808;28;20603;-24
2022/01/24 01:02:11;;;;;;;19.57;13.63;;;7.30;99.90;;;;;;5010086;28;20206;-24
2022/01/24 01:07:08;;;;;;;18.33;13.13;;;7.30;99.90;;;;;;5009215;28;20668;-24
2022/01/24 01:23:24;;;;;;;19.20;13.43;;;7.20;99.90;;;;;;5010014;28;20223;-25
2022/01/24 01:25:53;;;;;;;18.50;12.90;;;7.20;99.90;;;;;;5010304;28;20795;-24
2022/01/24 01:28:21;;;;;;;18.67;12.67;;;7.20;99.90;;;;;;5010381;28;20218;-25
2022/01/24 01:30:55;;;;;;;18.43;12.77;;;7.20;99.90;;;;;;5008439;28;20684;-25
2022/01/24 01:33:39;;;;;;;18.83;13.53;;;7.20;99.90;;;;;;5025108;28;20209;-24
2022/01/24 01:36:17;;;;;;;20.97;13.43;;;7.20;99.90;;;;;;5009015;28;20201;-24
2022/01/24 01:52:23;;;;;;;19.23;12.90;;;7.20;99.90;;;;;;5009667;28;20467;-24
2022/01/24 01:53:51;;;;;;;18.90;13.50;;;7.10;99.90;;;;;;4996817;28;20259;-24
2022/01/24 01:56:16;;;;;;;18.77;12.77;;;7.10;99.90;;;;;;5008375;28;20217;-24
2022/01/24 01:58:43;;;;;;;18.47;12.97;;;7.10;99.90;;;;;;5007798;28;20225;-24
2022/01/24 02:01:10;;;;;;;20.00;13.57;;;7.20;99.90;;;;;;5009156;28;20194;-24
2022/01/24 02:03:39;;;;;;;20.87;13.87;;;7.10;99.90;;;;;;5024182;28;20213;-24
2022/01/24 02:06:07;;;;;;;18.73;12.90;;;7.20;99.90;;;;;;5007909;28;20283;-24
2022/01/24 02:08:42;;;;;;;20.83;14.00;;;7.10;99.90;;;;;;5008352;28;20289;-24
2022/01/24 02:11:17;;;;;;;19.77;13.20;;;7.10;99.90;;;;;;4997773;28;20209;-24
2022/01/24 02:13:51;;;;;;;21.53;13.63;;;7.10;99.90;;;;;;5008679;28;20209;-24
2022/01/24 02:16:36;;;;;;;23.80;14.07;;;7.10;99.90;;;;;;5008725;28;20628;-24
2022/01/24 02:24:20;;;;;;;19.70;12.97;;;7.20;99.90;;;;;;5008944;28;20205;-24
2022/01/24 02:26:49;;;;;;;21.27;13.57;;;7.10;99.90;;;;;;5008530;28;20213;-24
2022/01/24 02:29:42;;;;;;;19.10;12.63;;;7.10;99.90;;;;;;5009070;28;20220;-24
2022/01/24 02:32:09;;;;;;;20.17;13.50;;;7.10;99.90;;;;;;5007696;28;20193;-24
2022/01/24 02:34:40;;;;;;;20.53;14.00;;;7.10;99.90;;;;;;5008610;28;20954;-24
2022/01/24 02:37:09;;;;;;;20.43;13.63;;;7.10;99.90;;;;;;5007848;28;20220;-24
2022/01/24 02:51:44;;;;;;;20.83;13.20;;;7.10;99.90;;;;;;5001391;28;20480;-25
2022/01/24 02:53:31;;;;;;;20.07;13.70;;;7.10;99.90;;;;;;5007543;28;20220;-25
2022/01/24 02:56:04;;;;;;;21.17;14.17;;;7.10;99.90;;;;;;5008654;28;20612;-24
2022/01/24 02:58:34;;;;;;;21.03;13.03;;;7.10;99.90;;;;;;5022683;28;20276;-24
2022/01/24 03:01:06;;;;;;;19.93;13.10;;;7.10;99.90;;;;;;5007662;28;20201;-25
2022/01/24 03:03:36;;;;;;;18.93;12.57;;;7.10;99.90;;;;;;5023144;28;20772;-24
2022/01/24 03:06:06;;;;;;;21.80;13.33;;;7.10;99.90;;;;;;5006350;28;20197;-24
2022/01/24 03:08:37;;;;;;;21.83;13.33;;;7.10;99.90;;;;;;5011601;28;20241;-24
2022/01/24 03:11:04;;;;;;;21.03;13.53;;;7.10;99.90;;;;;;5012353;28;20718;-24
2022/01/24 03:13:34;;;;;;;20.00;12.97;;;7.10;99.90;;;;;;5011524;28;20259;-24
2022/01/24 03:16:06;;;;;;;20.43;13.17;;;7.10;99.90;;;;;;5012429;28;20198;-25
2022/01/24 03:18:36;;;;;;;20.83;12.93;;;7.10;99.90;;;;;;5011538;28;20225;-24
2022/01/24 03:21:06;;;;;;;21.27;13.20;;;7.10;99.90;;;;;;5025002;28;20267;-25
2022/01/24 03:23:33;;;;;;;22.93;14.53;;;7.10;99.90;;;;;;5011857;28;20255;-25
2022/01/24 03:26:00;;;;;;;22.57;13.97;;;7.10;99.90;;;;;;5012110;28;20201;-24
2022/01/24 03:28:27;;;;;;;20.83;13.20;;;7.10;99.90;;;;;;5011438;28;20213;-24
2022/01/24 03:30:59;;;;;;;20.00;13.40;;;7.00;99.90;;;;;;5011066;28;20217;-24
2022/01/24 03:33:29;;;;;;;21.83;13.43;;;7.00;99.90;;;;;;5011955;28;20202;-25
2022/01/24 03:36:01;;;;;;;22.13;13.93;;;7.00;99.90;;;;;;5011260;28;20206;-24
2022/01/24 03:38:28;;;;;;;21.70;13.13;;;7.00;99.90;;;;;;5012029;28;20249;-25
2022/01/24 03:40:55;;;;;;;19.37;13.40;;;7.00;99.90;;;;;;5011535;28;20198;-24
2022/01/24 03:43:22;;;;;;;20.33;13.53;;;7.00;99.90;;;;;;5011298;28;20213;-24
2022/01/24 03:46:11;;;;;;;20.27;13.27;;;7.00;99.90;;;;;;5010280;28;20218;-24
2022/01/24 03:48:44;;;;;;;19.30;13.13;;;7.00;99.90;;;;;;5011666;28;20209;-25
2022/01/24 03:51:12;;;;;;;20.17;13.73;;;7.00;99.90;;;;;;5011012;28;20243;-24
2022/01/24 03:53:45;;;;;;;21.70;14.03;;;7.00;99.90;;;;;;5011332;28;20588;-24
2022/01/24 03:56:13;;;;;;;20.00;13.33;;;7.00;99.90;;;;;;5011624;28;20676;-25
2022/01/24 03:58:41;;;;;;;20.63;14.17;;;7.00;99.90;;;;;;5011039;28;20229;-24
2022/01/24 04:01:10;;;;;;;21.20;13.80;;;6.90;99.90;;;;;;5012122;28;20293;-25
2022/01/24 04:03:42;;;;;;;22.10;14.83;;;6.90;99.90;;;;;;5011575;28;20221;-25
2022/01/24 04:06:09;;;;;;;25.47;15.03;;;6.90;99.90;;;;;;5024944;28;20197;-25
2022/01/24 04:08:39;;;;;;;21.90;14.10;;;6.90;99.90;;;;;;5011065;28;20193;-24
2022/01/24 04:11:11;;;;;;;21.47;14.67;;;6.90;99.90;;;;;;5011642;28;20210;-24
2022/01/24 04:13:41;;;;;;;22.07;14.30;;;6.90;99.90;;;;;;5025972;28;20664;-25
2022/01/24 04:16:24;;;;;;;21.53;14.33;;;6.90;99.90;;;;;;5026204;28;20208;-24
2022/01/24 04:19:14;;;;;;;20.60;14.33;;;6.90;99.90;;;;;;5009986;28;20221;-24
2022/01/24 04:21:47;;;;;;;21.67;14.20;;;6.90;99.90;;;;;;5010358;28;20216;-24
2022/01/24 04:24:22;;;;;;;20.90;14.30;;;6.90;99.90;;;;;;5011209;28;20292;-25
2022/01/24 04:26:54;;;;;;;21.80;15.00;;;6.90;99.90;;;;;;5010227;28;20296;-25
2022/01/24 04:29:21;;;;;;;22.23;15.00;;;6.90;99.90;;;;;;5009075;28;20735;-24
2022/01/24 04:31:51;;;;;;;22.13;15.07;;;6.90;99.90;;;;;;5010732;28;20213;-25
2022/01/24 04:34:21;;;;;;;21.80;14.23;;;6.90;99.90;;;;;;5026018;28;20205;-24
2022/01/24 04:36:53;;;;;;;20.23;15.13;;;6.90;99.90;;;;;;5010049;28;20198;-24
2022/01/24 04:39:23;;;;;;;21.93;15.80;;;6.90;99.90;;;;;;5010561;28;20320;-24
2022/01/24 04:41:54;;;;;;;24.57;15.90;;;6.90;99.90;;;;;;5009884;28;20194;-25
2022/01/24 04:52:57;;;;;;;20.07;14.10;;;6.90;99.90;;;;;;5015418;28;20194;-24
2022/01/24 04:55:26;;;;;;;21.00;15.30;;;6.80;99.90;;;;;;5010349;28;20205;-25
2022/01/24 04:57:55;;;;;;;22.20;15.13;;;6.80;99.90;;;;;;5008718;28;20225;-25
2022/01/24 05:00:25;;;;;;;22.00;15.77;;;6.80;99.90;;;;;;5010225;28;20202;-25
2022/01/24 05:02:54;;;;;;;20.37;14.67;;;6.80;99.90;;;;;;5010034;28;20198;-25
2022/01/24 05:05:27;;;;;;;21.30;14.33;;;6.80;99.90;;;;;;5008028;28;20743;-24
2022/01/24 05:08:04;;;;;;;18.73;14.17;;;6.80;99.90;;;;;;5010359;28;20564;-29
2022/01/24 05:10:50;;;;;;;21.97;14.73;;;6.80;99.90;;;;;;5008522;28;20205;-24
2022/01/24 05:23:27;;;;;;;21.73;15.30;;;6.80;99.90;;;;;;5008942;28;20297;-25
2022/01/24 05:24:29;;;;;;;23.97;16.27;;;6.70;99.90;;;;;;5005472;28;20265;-24
2022/01/24 05:26:59;;;;;;;23.50;16.07;;;6.70;99.90;;;;;;4989899;28;20233;-25
2022/01/24 05:29:27;;;;;;;21.80;15.77;;;6.70;99.90;;;;;;5021098;28;20205;-25
2022/01/24 05:31:57;;;;;;;22.13;15.97;;;6.70;99.90;;;;;;5024440;28;20623;-25
2022/01/24 05:34:25;;;;;;;22.83;15.87;;;6.70;99.90;;;;;;5010071;28;20205;-25
2022/01/24 05:36:55;;;;;;;23.10;15.80;;;6.70;99.90;;;;;;5008632;28;20240;-24
2022/01/24 05:39:24;;;;;;;24.53;16.40;;;6.70;99.90;;;;;;5009973;28;20578;-24
2022/01/24 05:41:54;;;;;;;26.40;16.67;;;6.80;99.90;;;;;;5008535;28;20213;-24
2022/01/24 05:44:24;;;;;;;24.33;17.27;;;6.70;99.90;;;;;;5010078;28;20569;-25
2022/01/24 05:46:51;;;;;;;24.20;16.33;;;6.70;99.90;;;;;;5009309;28;20193;-24
2022/01/24 05:49:18;;;;;;;25.17;16.43;;;6.70;99.90;;;;;;5009377;28;20213;-24
2022/01/24 05:51:48;;;;;;;21.17;15.30;;;6.70;99.90;;;;;;5008278;28;20319;-24
2022/01/24 05:54:15;;;;;;;23.67;16.50;;;6.70;99.90;;;;;;5009192;28;20288;-25
2022/01/24 05:56:43;;;;;;;25.70;17.13;;;6.70;99.90;;;;;;5009066;28;20210;-26
2022/01/24 05:59:10;;;;;;;23.53;15.87;;;6.70;99.90;;;;;;5007647;28;20634;-26
2022/01/24 06:01:37;;;;;;;23.80;16.30;;;6.70;99.90;;;;;;5008812;28;20300;-26
2022/01/24 06:04:04;;;;;;;24.60;16.80;;;6.70;99.90;;;;;;5023595;28;20210;-26
2022/01/24 06:06:34;;;;;;;22.03;15.40;;;6.70;99.90;;;;;;5022814;28;20200;-26
2022/01/24 06:09:03;;;;;;;26.20;17.00;;;6.70;99.90;;;;;;5008777;28;20618;-25
2022/01/24 06:11:31;;;;;;;23.87;16.53;;;6.70;99.90;;;;;;5008639;28;20208;-26
2022/01/24 06:14:02;;;;;;;25.33;16.93;;;6.70;99.90;;;;;;5008167;28;20312;-26
2022/01/24 06:16:29;;;;;;;21.73;16.07;;;6.70;99.90;;;;;;5008372;28;20193;-26
2022/01/24 06:18:57;;;;;;;21.50;15.17;;;6.80;99.90;;;;;;5008688;28;20229;-26
2022/01/24 06:21:24;;;;;;;25.57;16.27;;;6.70;99.90;;;;;;5007618;28;20208;-26
2022/01/24 06:23:55;;;;;;;27.20;16.33;;;6.70;99.90;;;;;;5008503;28;20280;-26
2022/01/24 06:26:25;;;;;;;26.67;16.33;;;6.70;99.90;;;;;;5008797;28;20707;-26
2022/01/24 06:28:54;;;;;;;23.90;16.70;;;6.70;99.90;;;;;;5008185;28;20216;-26
2022/01/24 06:31:22;;;;;;;27.73;15.83;;;6.70;99.90;;;;;;5008782;28;20201;-26
2022/01/24 06:33:53;;;;;;;25.37;17.03;;;6.70;99.90;;;;;;5022688;28;20608;-26
2022/01/24 06:36:21;;;;;;;25.93;16.23;;;6.70;99.90;;;;;;5007428;28;20218;-26
2022/01/24 06:38:50;;;;;;;25.73;15.67;;;6.70;99.90;;;;;;5008957;28;20252;-26
2022/01/24 06:41:24;;;;;;;24.10;15.23;;;6.70;99.90;;;;;;5008364;28;20536;-26
2022/01/24 06:43:53;;;;;;;25.17;15.73;;;6.70;99.90;;;;;;5007538;28;20249;-26
2022/01/24 06:46:20;;;;;;;23.90;15.70;;;6.70;99.90;;;;;;5008445;28;20202;-26
2022/01/24 06:48:49;;;;;;;24.37;16.13;;;6.70;99.90;;;;;;5015260;28;20213;-26
2022/01/24 06:51:18;;;;;;;23.23;16.13;;;6.70;99.90;;;;;;5004268;28;20245;-26
2022/01/24 06:53:52;;;;;;;23.87;16.57;;;6.70;99.90;;;;;;5007091;28;20221;-26
2022/01/24 06:56:22;;;;;;;22.60;14.93;;;6.70;99.90;;;;;;5004884;28;20648;-26
2022/01/24 06:58:52;;;;;;;27.03;16.63;;;6.70;99.90;;;;;;5003575;28;20221;-26
2022/01/24 07:01:23;;;;;;;31.50;16.10;;;6.70;99.90;;;;;;5002916;28;20287;-26
2022/01/24 07:03:51;;;;;;;27.10;17.00;;;6.70;99.90;;;;;;4993996;28;20563;-26
2022/01/24 07:06:20;;;;;;;24.27;16.43;;;6.70;99.90;;;;;;5004676;28;20201;-26
2022/01/24 07:08:47;;;;;;;28.50;16.67;;;6.70;99.90;;;;;;5007542;28;20212;-26
2022/01/24 07:11:17;;;;;;;26.60;16.13;;;6.70;99.90;;;;;;5022266;28;20276;-25
2022/01/24 07:13:45;;;;;;;32.43;17.87;;;6.70;99.90;;;;;;5007466;28;20200;-26
2022/01/24 07:16:13;;;;;;;31.33;16.70;;;6.70;99.90;;;;;;5006598;28;20292;-26
2022/01/24 07:19:03;;;;;;;26.67;16.87;;;6.70;99.90;;;;;;5037975;28;20342;-26
2022/01/24 07:21:31;;;;;;;24.40;16.67;;;6.70;99.90;;;;;;5001608;28;20204;-26
2022/01/24 07:24:00;;;;;;;24.70;15.80;;;6.70;99.90;;;;;;5007301;28;20281;-26
2022/01/24 07:26:30;;;;;;;28.33;16.90;;;6.70;99.90;;;;;;5007035;28;20259;-25
2022/01/24 07:28:57;;;;;;;27.57;16.57;;;6.80;99.90;;;;;;5007013;28;20225;-25
2022/01/24 07:31:24;;;;;;;23.27;15.40;;;6.70;99.90;;;;;;5008801;28;20202;-26
2022/01/24 07:33:57;;;;;;;23.37;15.60;;;6.80;99.90;;;;;;5018869;28;20205;-26
2022/01/24 07:36:29;;;;;;;24.70;16.07;;;6.70;99.90;;;;;;5005478;28;20235;-26
2022/01/24 07:38:59;;;;;;;25.37;16.13;;;6.70;99.90;;;;;;5003536;28;20252;-26
2022/01/24 07:41:33;;;;;;;24.10;15.53;;;6.70;99.90;;;;;;5004871;28;20214;-26
2022/01/24 07:44:02;;;;;;;22.70;16.13;;;6.70;99.90;;;;;;5006729;28;20200;-26
2022/01/24 07:46:33;;;;;;;22.77;15.53;;;6.70;99.90;;;;;;5006557;28;20221;-26
2022/01/24 07:49:07;;;;;;;26.73;16.03;;;6.70;99.90;;;;;;5007396;28;20232;-26
2022/01/24 07:51:37;;;;;;;26.23;15.50;;;6.80;99.90;;;;;;5006352;28;20247;-26
2022/01/24 07:54:08;;;;;;;20.73;14.53;;;6.70;99.90;;;;;;5009178;28;20291;-25
2022/01/24 07:56:36;;;;;;;22.47;15.00;;;6.70;99.90;;;;;;5009979;28;20328;-26
2022/01/24 07:59:04;;;;;;;28.50;15.83;;;6.70;99.90;;;;;;5011590;28;20226;-26
2022/01/24 08:01:34;;;;;;;23.10;15.50;;;6.70;99.90;;;;;;5000868;28;20683;-26
2022/01/24 08:04:04;;;;;;;21.67;14.40;;;6.70;99.90;;;;;;5027454;28;20217;-26
2022/01/24 08:06:34;;;;;;;22.67;14.53;;;6.70;99.90;;;;;;5013389;28;20411;-26
2022/01/24 08:09:06;;;;;;;21.73;14.93;;;6.80;99.90;;;;;;5011378;28;20205;-26
2022/01/24 08:11:34;;;;;;;21.60;14.83;;;6.80;99.90;;;;;;5010590;28;20226;-26
2022/01/24 08:14:04;;;;;;;21.73;14.87;;;6.80;99.90;;;;;;5017927;28;20203;-26
2022/01/24 08:16:35;;;;;;;20.47;13.77;;;6.80;99.90;;;;;;5014119;28;20213;-26
2022/01/24 08:19:02;;;;;;;18.57;13.87;;;6.80;99.90;;;;;;5010745;28;20233;-26
2022/01/24 08:21:32;;;;;;;21.17;13.90;;;6.80;99.90;;;;;;5009845;28;20209;-26
2022/01/24 08:24:02;;;;;;;21.53;15.03;;;6.80;99.90;;;;;;5010330;28;20194;-26
2022/01/24 08:26:31;;;;;;;21.17;13.93;;;6.80;99.90;;;;;;5010376;28;20222;-25
2022/01/24 08:29:01;;;;;;;22.13;15.40;;;6.80;99.90;;;;;;5010338;28;20328;-26
2022/01/24 08:31:30;;;;;;;21.07;14.73;;;6.80;99.90;;;;;;5010512;28;20213;-26
2022/01/24 08:33:58;;;;;;;22.00;14.87;;;6.80;99.90;;;;;;5010524;28;20300;-26
2022/01/24 08:36:28;;;;;;;21.27;15.17;;;6.80;99.90;;;;;;5008118;28;20293;-26
2022/01/24 08:39:08;;;;;;;19.83;14.17;;;6.80;99.90;;;;;;5024530;28;20596;-26
2022/01/24 08:42:14;;;;;;;21.77;15.10;;;6.80;99.90;;;;;;5013005;28;20216;-26
2022/01/24 08:47:06;;;;;;;22.07;14.67;;;6.80;99.90;;;;;;5030462;28;20278;-26
2022/01/24 08:49:36;;;;;;;19.63;13.67;;;6.80;99.90;;;;;;5021370;28;20304;-26
2022/01/24 08:52:03;;;;;;;19.87;14.13;;;6.80;99.90;;;;;;5007287;28;20711;-26
2022/01/24 08:54:33;;;;;;;19.90;13.97;;;6.80;99.90;;;;;;5008274;28;20244;-26
2022/01/24 08:57:03;;;;;;;22.37;14.47;;;6.80;99.90;;;;;;5007964;28;20229;-26
2022/01/24 08:59:33;;;;;;;22.90;15.07;;;6.80;99.90;;;;;;5010407;28;20688;-26
2022/01/24 09:02:01;;;;;;;23.10;15.03;;;6.80;99.90;;;;;;5008993;28;20208;-25
2022/01/24 09:04:31;;;;;;;24.17;16.60;;;6.80;99.90;;;;;;5009627;28;20204;-26
2022/01/24 09:07:03;;;;;;;22.93;16.10;;;6.80;99.90;;;;;;5008252;28;20202;-25
2022/01/24 09:09:34;;;;;;;22.37;14.97;;;6.80;99.90;;;;;;5001515;28;20792;-26
2022/01/24 09:12:11;;;;;;;27.17;15.37;;;6.80;99.90;;;;;;5006807;28;20206;-26
2022/01/24 09:14:47;;;;;;;24.37;14.87;;;6.80;99.90;;;;;;5013015;28;20209;-26
2022/01/24 09:17:18;;;;;;;25.03;15.47;;;6.80;99.90;;;;;;5038071;28;20214;-26
2022/01/24 09:19:45;;;;;;;23.63;15.07;;;6.80;99.90;;;;;;5006711;28;20730;-26
2022/01/24 09:22:36;;;;;;;25.27;15.23;;;6.80;99.90;;;;;;5008409;28;20534;-26
2022/01/24 09:25:09;;;;;;;23.27;15.43;;;6.80;99.90;;;;;;5009046;28;20214;-26
2022/01/24 09:27:40;;;;;;;21.57;14.63;;;6.70;99.90;;;;;;5008673;28;20236;-26
2022/01/24 09:30:11;;;;;;;21.87;14.03;;;6.80;99.90;;;;;;5009409;28;20236;-25
2022/01/24 09:32:41;;;;;;;24.73;15.17;;;6.70;99.90;;;;;;5009820;28;20595;-26
2022/01/24 09:35:11;;;;;;;22.40;14.20;;;6.70;99.90;;;;;;5013215;28;20220;-26
2022/01/24 09:37:41;;;;;;;22.80;15.03;;;6.70;99.90;;;;;;5004505;28;20209;-26
2022/01/24 09:40:13;;;;;;;23.13;15.10;;;6.70;99.90;;;;;;5009446;28;20244;-26
2022/01/24 09:42:42;;;;;;;26.87;15.37;;;6.70;99.90;;;;;;5023885;28;20312;-26
2022/01/24 09:45:13;;;;;;;26.53;15.83;;;6.80;99.90;;;;;;5009396;28;20649;-26
2022/01/24 09:47:40;;;;;;;24.20;15.67;;;6.70;99.90;;;;;;5008919;28;20228;-26
2022/01/24 09:50:18;;;;;;;24.80;15.33;;;6.70;99.90;;;;;;5021427;28;20202;-26
2022/01/24 09:52:48;;;;;;;23.63;15.23;;;6.70;99.90;;;;;;5009008;28;20713;-26
2022/01/24 09:55:18;;;;;;;21.67;14.53;;;6.70;99.90;;;;;;5009335;28;20600;-26
2022/01/24 09:57:49;;;;;;;24.90;14.47;;;6.70;99.90;;;;;;5015277;28;20209;-26
2022/01/24 10:00:22;;;;;;;23.00;14.63;;;6.80;99.90;;;;;;5008299;28;20221;-26
2022/01/24 10:02:53;;;;;;;24.97;14.80;;;6.80;99.90;;;;;;5008190;28;20197;-26
2022/01/24 10:05:42;;;;;;;26.60;15.83;;;6.80;99.90;;;;;;5003972;28;20288;-26
2022/01/24 10:08:33;;;;;;;26.30;15.57;;;6.80;99.90;;;;;;4997401;28;20296;-26
2022/01/24 10:11:03;;;;;;;26.13;15.37;;;6.80;99.90;;;;;;5012229;28;20217;-26
2022/01/24 10:16:37;;;;;;;23.23;14.80;;;6.80;99.90;;;;;;5009889;28;20220;-26
2022/01/24 10:19:22;;;;;;;25.63;14.27;;;6.80;99.90;;;;;;5015868;28;20204;-26
2022/01/24 10:22:03;;;;;;;27.30;15.40;;;6.80;99.90;;;;;;5002003;28;20217;-26
2022/01/24 10:24:40;;;;;;;23.60;14.97;;;6.90;99.90;;;;;;4994072;28;20217;-26
2022/01/24 10:27:25;;;;;;;22.23;14.57;;;6.90;99.90;;;;;;5020192;28;20930;-26
2022/01/24 10:30:10;;;;;;;24.73;13.93;;;6.90;99.90;;;;;;5009398;28;20216;-26
2022/01/24 10:32:48;;;;;;;26.83;14.70;;;6.90;99.90;;;;;;5010898;28;20555;-25
2022/01/24 10:35:35;;;;;;;24.20;14.87;;;6.90;99.90;;;;;;5018320;28;20197;-25
2022/01/24 10:38:17;;;;;;;24.93;15.30;;;7.00;99.90;;;;;;5005070;28;20259;-24
2022/01/24 10:41:06;;;;;;;24.90;15.00;;;7.00;99.90;;;;;;5007935;28;20307;-25
2022/01/24 10:43:33;;;;;;;25.93;15.40;;;7.00;99.90;;;;;;5008398;28;20291;-25
2022/01/24 10:46:03;;;;;;;23.83;15.07;;;7.00;99.90;;;;;;5007147;28;20577;-25
2022/01/24 10:48:40;;;;;;;26.23;15.43;;;7.10;99.90;;;;;;5003319;28;20210;-24
2022/01/24 10:51:18;;;;;;;27.27;16.20;;;7.10;99.90;;;;;;4997406;28;20720;-25
2022/01/24 10:53:57;;;;;;;24.70;14.90;;;7.10;99.90;;;;;;5007818;28;20636;-25
2022/01/24 10:56:48;;;;;;;25.80;16.40;;;7.10;99.90;;;;;;5007231;28;20209;-25
2022/01/24 10:59:15;;;;;;;23.13;14.57;;;7.20;99.90;;;;;;5006681;28;20646;-25
2022/01/24 11:01:49;;;;;;;23.50;15.27;;;7.20;99.90;;;;;;5008396;28;20197;-24
2022/01/24 11:04:20;;;;;;;26.00;16.13;;;7.20;99.90;;;;;;5023965;28;20239;-24
2022/01/24 11:06:53;;;;;;;25.70;15.83;;;7.20;99.90;;;;;;5006381;28;20733;-25
2022/01/24 11:09:34;;;;;;;26.03;15.60;;;7.20;99.90;;;;;;5006790;28;20205;-24
2022/01/24 11:12:12;;;;;;;25.60;15.43;;;7.30;99.90;;;;;;5012917;28;20201;-24
2022/01/24 11:14:42;;;;;;;23.37;15.10;;;7.30;99.90;;;;;;5005789;28;20209;-25
2022/01/24 11:17:13;;;;;;;24.80;15.03;;;7.30;99.90;;;;;;5005241;28;20220;-25
2022/01/24 11:19:50;;;;;;;24.57;15.27;;;7.30;99.90;;;;;;5035731;28;20406;-24
2022/01/24 11:22:23;;;;;;;29.40;17.17;;;7.40;99.90;;;;;;5007786;28;20235;-25
2022/01/24 11:25:02;;;;;;;23.67;16.07;;;7.40;99.90;;;;;;5007280;28;20226;-25
2022/01/24 11:27:36;;;;;;;27.73;16.47;;;7.40;99.90;;;;;;5021227;28;20267;-25
2022/01/24 11:30:32;;;;;;;24.23;15.47;;;7.50;99.90;;;;;;5022137;28;20209;-24
2022/01/24 11:33:12;;;;;;;25.03;15.87;;;7.50;99.90;;;;;;4996198;28;20208;-25
2022/01/24 11:35:54;;;;;;;22.93;15.40;;;7.50;99.90;;;;;;5008335;28;20228;-24
2022/01/24 11:38:28;;;;;;;25.40;16.07;;;7.50;99.90;;;;;;5011082;28;20201;-25
2022/01/24 11:41:00;;;;;;;23.80;14.83;;;7.50;99.90;;;;;;4991817;28;20325;-25
2022/01/24 11:43:35;;;;;;;26.37;15.97;;;7.60;99.90;;;;;;5010435;28;20676;-24
2022/01/24 11:46:28;;;;;;;23.97;15.73;;;7.60;99.90;;;;;;5009510;28;20227;-25
2022/01/24 11:49:26;;;;;;;26.17;16.50;;;7.60;99.90;;;;;;5000533;28;20213;-24
2022/01/24 11:52:18;;;;;;;25.73;15.60;;;7.70;99.90;;;;;;5007284;28;20627;-24
2022/01/24 11:55:02;;;;;;;24.53;15.50;;;7.70;99.90;;;;;;5011181;28;20210;-26
2022/01/24 11:57:41;;;;;;;25.63;15.43;;;7.70;99.90;;;;;;5010294;28;20206;-25
2022/01/24 12:00:09;;;;;;;25.77;15.97;;;7.70;99.90;;;;;;4991722;28;20250;-24
2022/01/24 12:02:44;;;;;;;22.77;15.17;;;7.70;99.90;;;;;;5007156;28;20209;-24
2022/01/24 12:05:12;;;;;;;23.93;15.33;;;7.80;99.90;;;;;;5025391;28;20248;-25
2022/01/24 12:08:12;;;;;;;24.90;15.50;;;7.80;99.90;;;;;;5010510;28;20205;-25
2022/01/24 12:11:11;;;;;;;25.17;15.70;;;7.80;99.90;;;;;;4996342;28;20249;-25
2022/01/24 12:13:44;;;;;;;23.63;15.07;;;7.80;99.90;;;;;;5010086;28;20374;-25
2022/01/24 12:16:15;;;;;;;21.33;14.10;;;7.80;99.90;;;;;;5010435;28;20782;-25
2022/01/24 12:18:49;;;;;;;24.53;15.93;;;7.80;99.90;;;;;;5010675;28;20224;-25
2022/01/24 12:21:25;;;;;;;27.90;16.53;;;7.90;99.90;;;;;;5009768;28;20231;-25
2022/01/24 12:24:05;;;;;;;23.20;14.77;;;7.90;99.90;;;;;;5010374;28;20197;-25
2022/01/24 12:26:41;;;;;;;23.30;14.73;;;8.00;99.90;;;;;;5009471;28;20287;-25
2022/01/24 12:29:21;;;;;;;23.70;15.83;;;8.00;99.90;;;;;;5009991;28;20736;-25
2022/01/24 12:32:02;;;;;;;24.93;16.00;;;8.00;99.90;;;;;;5025506;28;20204;-25
2022/01/24 12:34:39;;;;;;;23.80;15.33;;;8.00;99.90;;;;;;5010270;28;20371;-24
2022/01/24 12:37:32;;;;;;;21.83;15.10;;;8.00;99.90;;;;;;5009511;28;20679;-24
2022/01/24 12:40:03;;;;;;;22.00;15.00;;;8.10;99.90;;;;;;5008982;28;20314;-25
2022/01/24 12:48:08;;;;;;;25.40;15.70;;;8.10;99.90;;;;;;4996595;28;20197;-24
2022/01/24 12:50:35;;;;;;;24.93;15.80;;;8.10;99.90;;;;;;5002081;28;20240;-24
2022/01/24 12:53:12;;;;;;;25.50;15.50;;;8.10;99.90;;;;;;5009665;28;20213;-24
2022/01/24 12:55:41;;;;;;;25.23;16.33;;;8.10;99.90;;;;;;5009744;28;20745;-25
2022/01/24 12:58:08;;;;;;;22.67;14.80;;;8.10;99.90;;;;;;5007890;28;20202;-25
2022/01/24 13:00:39;;;;;;;21.83;14.30;;;8.20;99.90;;;;;;5024885;28;20706;-25
2022/01/24 13:03:12;;;;;;;23.37;15.60;;;8.10;99.90;;;;;;5009747;28;20216;-24
2022/01/24 13:05:40;;;;;;;23.60;14.53;;;8.20;99.90;;;;;;5040341;28;20202;-25
2022/01/24 13:08:17;;;;;;;24.37;14.93;;;8.20;99.90;;;;;;5009689;28;20205;-25
2022/01/24 13:10:47;;;;;;;24.10;15.83;;;8.20;99.90;;;;;;5008423;28;20209;-24
2022/01/24 13:13:16;;;;;;;28.30;15.87;;;8.20;99.90;;;;;;5009234;28;20707;-25
2022/01/24 13:21:22;;;;;;;24.03;15.70;;;8.30;99.90;;;;;;5001101;28;20225;-24
2022/01/24 13:24:01;;;;;;;24.40;15.13;;;8.30;99.90;;;;;;5009166;28;20225;-24
2022/01/24 13:26:33;;;;;;;25.13;16.80;;;8.30;99.90;;;;;;5007840;28;20225;-25
2022/01/24 13:29:04;;;;;;;23.77;15.60;;;8.30;99.90;;;;;;5000938;28;20315;-24
2022/01/24 13:31:34;;;;;;;24.07;15.67;;;8.30;99.90;;;;;;5003293;28;20593;-24
2022/01/24 13:34:08;;;;;;;25.17;15.83;;;8.40;99.90;;;;;;5007087;28;20217;-25
2022/01/24 13:36:37;;;;;;;22.77;15.83;;;8.40;99.90;;;;;;5008527;28;20209;-24
2022/01/24 13:39:05;;;;;;;23.00;15.33;;;8.40;99.90;;;;;;5007400;28;20213;-25
2022/01/24 13:41:34;;;;;;;24.83;16.37;;;8.40;99.90;;;;;;5007920;28;20703;-25
2022/01/24 13:44:08;;;;;;;27.20;15.67;;;8.40;99.90;;;;;;5007141;28;20294;-24
2022/01/24 13:46:38;;;;;;;22.83;15.93;;;8.50;99.90;;;;;;5023306;28;20248;-25
2022/01/24 13:49:12;;;;;;;22.17;15.27;;;8.50;99.90;;;;;;5008731;28;20201;-25
2022/01/24 13:51:42;;;;;;;24.73;15.50;;;8.50;99.90;;;;;;5016431;28;20236;-24
2022/01/24 13:54:21;;;;;;;22.53;15.53;;;8.50;99.90;;;;;;5009157;28;20210;-25
2022/01/24 13:56:50;;;;;;;23.73;16.20;;;8.50;99.90;;;;;;5007889;28;20197;-25
2022/01/24 13:59:26;;;;;;;23.87;15.20;;;8.60;99.90;;;;;;5022380;28;20218;-24
2022/01/24 14:02:07;;;;;;;24.97;16.70;;;8.60;99.90;;;;;;5004504;28;20749;-24
2022/01/24 14:04:53;;;;;;;25.43;16.67;;;8.60;99.90;;;;;;5026541;28;20209;-25
2022/01/24 14:07:31;;;;;;;27.90;16.20;;;8.60;99.90;;;;;;5006873;28;20213;-25
2022/01/24 14:10:02;;;;;;;24.93;16.87;;;8.60;99.90;;;;;;5006262;28;20264;-25
2022/01/24 14:12:55;;;;;;;25.20;16.30;;;8.60;99.90;;;;;;5007468;28;20651;-24
2022/01/24 14:15:38;;;;;;;23.43;15.73;;;8.60;99.90;;;;;;5013338;28;20599;-25
2022/01/24 14:20:53;;;;;;;25.20;16.27;;;8.60;99.90;;;;;;5010327;28;20224;-25
2022/01/24 14:23:42;;;;;;;23.53;15.33;;;8.60;99.90;;;;;;5006129;28;20201;-24
2022/01/24 14:26:21;;;;;;;27.60;16.37;;;8.60;99.90;;;;;;5007851;28;20240;-24
2022/01/24 14:29:04;;;;;;;22.97;15.53;;;8.60;99.90;;;;;;5005846;28;20229;-25
2022/01/24 14:31:32;;;;;;;22.00;15.33;;;8.60;99.90;;;;;;5004621;28;20202;-25
2022/01/24 14:34:07;;;;;;;23.57;15.40;;;8.60;99.90;;;;;;5020168;28;20702;-24
2022/01/24 14:36:36;;;;;;;23.43;16.13;;;8.60;99.90;;;;;;5005555;28;20221;-24
2022/01/24 14:39:08;;;;;;;24.37;16.70;;;8.60;99.90;;;;;;5013520;28;20213;-26
2022/01/24 14:41:46;;;;;;;24.40;16.10;;;8.60;99.90;;;;;;5011284;28;20363;-24
2022/01/24 14:47:05;;;;;;;27.10;16.87;;;8.70;99.90;;;;;;4998217;28;20217;-26
2022/01/24 14:49:43;;;;;;;25.63;16.20;;;8.70;99.90;;;;;;5006646;28;20673;-24
2022/01/24 14:52:19;;;;;;;26.87;17.03;;;8.70;99.90;;;;;;5011031;28;20264;-24